Terminal Aerodrome Forecast
Issued by NWS Boise, ID

Home | Current Version | Previous Version | Text Only | Print | Product List | Glossary On
Versions: 1 2 3 4 5 6 7 8 9 10 11 12 13 14 15 16 17 18 19 20 21 22 23 24 25 26 27 28 29 30 31 32 33 34 35 36 37 38 39 40
854
FTUS45 KBOI 180807 AAC
TAFBOI
TAF AMD
KBOI 180807Z 1808/1906 14005KT 4SM BR OVC100
     FM181500 14010KT 6SM -PLSN BR SCT025 OVC050
     FM181800 14009KT 4SM -FZRA BR OVC030
     FM190300 15012KT 4SM -RA BR OVC040=

USA.gov is the U.S. government's official web portal to all federal, state and local government web resources and services.